createdAt,value
2018-05-06T00:02:21.552Z,2.70
2018-05-06T00:04:49.014Z,2.87
2018-05-06T00:07:16.498Z,2.63
2018-05-06T00:09:43.963Z,2.80
2018-05-06T00:12:11.429Z,2.93
2018-05-06T00:14:38.903Z,2.80
2018-05-06T00:17:06.366Z,3.00
2018-05-06T00:19:33.844Z,2.93
2018-05-06T00:22:01.314Z,3.10
2018-05-06T00:24:28.784Z,2.77
2018-05-06T00:26:56.244Z,3.00
2018-05-06T00:29:23.708Z,2.80
2018-05-06T00:31:51.204Z,3.20
2018-05-06T00:34:18.662Z,3.20
2018-05-06T00:36:46.886Z,3.10
2018-05-06T00:39:14.354Z,2.67
2018-05-06T00:41:41.829Z,2.97
2018-05-06T00:44:10.078Z,3.00
2018-05-06T00:46:37.559Z,3.30
2018-05-06T00:49:05.023Z,3.43
2018-05-06T00:51:32.481Z,3.30
2018-05-06T00:53:59.959Z,3.20
2018-05-06T00:56:27.432Z,3.43
2018-05-06T00:58:54.886Z,3.43
2018-05-06T01:01:22.347Z,3.37
2018-05-06T01:03:49.815Z,3.23
2018-05-06T01:06:17.282Z,3.40
2018-05-06T01:08:44.764Z,3.70
2018-05-06T01:11:12.222Z,3.20
2018-05-06T01:13:39.697Z,3.83
2018-05-06T01:16:07.146Z,3.63
2018-05-06T01:18:34.610Z,3.43
2018-05-06T01:21:02.079Z,3.60
2018-05-06T01:23:29.540Z,3.43
2018-05-06T01:25:56.997Z,3.73
2018-05-06T01:28:24.471Z,3.50
2018-05-06T01:30:51.937Z,3.43
2018-05-06T01:33:19.410Z,3.50
2018-05-06T01:35:46.866Z,3.80
2018-05-06T01:38:14.331Z,3.80
2018-05-06T01:40:41.795Z,4.00
2018-05-06T01:43:09.249Z,4.20
2018-05-06T01:45:36.721Z,3.53
2018-05-06T01:48:04.182Z,3.30
2018-05-06T01:50:31.663Z,4.07
2018-05-06T01:52:59.885Z,3.80
2018-05-06T01:55:27.344Z,4.27
2018-05-06T01:57:54.807Z,3.80
2018-05-06T02:00:22.267Z,4.10
2018-05-06T02:02:49.738Z,3.60
2018-05-06T02:05:17.195Z,4.10
2018-05-06T02:07:44.681Z,4.40
2018-05-06T02:10:12.148Z,4.20
2018-05-06T02:12:40.386Z,4.13
2018-05-06T02:15:07.829Z,4.70
2018-05-06T02:17:36.063Z,4.03
2018-05-06T02:20:03.531Z,4.20
2018-05-06T02:22:30.995Z,4.03
2018-05-06T02:24:58.459Z,4.43
2018-05-06T02:27:25.929Z,4.77
2018-05-06T02:29:53.412Z,4.00
2018-05-06T02:32:20.880Z,4.13
2018-05-06T02:34:48.354Z,3.87
2018-05-06T02:37:16.611Z,4.27
2018-05-06T02:39:44.073Z,4.33
2018-05-06T02:42:11.535Z,4.10
2018-05-06T02:44:39.029Z,3.90
2018-05-06T02:47:07.253Z,4.47
2018-05-06T02:49:34.716Z,4.23
2018-05-06T02:52:02.200Z,4.17
2018-05-06T02:54:29.677Z,4.43
2018-05-06T02:56:57.140Z,3.97
2018-05-06T02:59:24.625Z,4.30
2018-05-06T03:01:52.888Z,4.47
2018-05-06T03:04:20.358Z,4.80
2018-05-06T03:06:47.840Z,4.50
2018-05-06T03:09:16.057Z,4.40
2018-05-06T03:11:43.521Z,4.77
2018-05-06T03:14:11.003Z,4.20
2018-05-06T03:16:39.363Z,3.83
2018-05-06T03:19:06.841Z,4.50
2018-05-06T03:21:34.317Z,4.43
2018-05-06T03:24:01.801Z,4.90
2018-05-06T03:26:29.265Z,4.33
2018-05-06T03:28:56.719Z,4.53
2018-05-06T03:31:24.206Z,5.00
2018-05-06T03:33:52.435Z,4.90
2018-05-06T03:36:19.908Z,4.70
2018-05-06T03:38:47.438Z,4.53
2018-05-06T03:41:14.851Z,5.17
2018-05-06T03:43:42.322Z,4.47
2018-05-06T03:46:09.786Z,4.57
2018-05-06T03:48:37.281Z,4.87
2018-05-06T03:51:04.739Z,4.87
2018-05-06T03:53:32.992Z,4.50
2018-05-06T03:59:23.089Z,4.87
2018-05-06T04:01:57.341Z,4.80
2018-05-06T04:04:24.916Z,4.70
2018-05-06T04:06:52.381Z,5.23
2018-05-06T04:09:19.867Z,5.23
2018-05-06T04:11:47.362Z,5.20
2018-05-06T04:14:14.809Z,4.57
2018-05-06T04:16:42.276Z,4.90
2018-05-06T04:19:09.740Z,4.90
2018-05-06T04:21:37.224Z,4.80
2018-05-06T04:24:05.461Z,5.07
2018-05-06T04:26:32.953Z,5.30
2018-05-06T04:29:00.422Z,4.53
2018-05-06T04:31:27.905Z,4.87
2018-05-06T04:33:56.148Z,5.00
2018-05-06T04:36:23.619Z,4.70
2018-05-06T04:38:51.085Z,4.80
2018-05-06T04:41:18.552Z,4.63
2018-05-06T04:43:46.034Z,5.03
2018-05-06T04:46:14.278Z,5.23
2018-05-06T04:48:42.530Z,4.20
2018-05-06T04:51:10.004Z,4.63
2018-05-06T04:53:37.500Z,4.97
2018-05-06T04:56:04.962Z,4.83
2018-05-06T04:58:32.426Z,4.77
2018-05-06T05:00:59.889Z,4.43
2018-05-06T05:03:27.364Z,4.73
2018-05-06T05:05:54.848Z,4.50
2018-05-06T05:08:23.074Z,4.50
2018-05-06T05:10:50.556Z,4.77
2018-05-06T05:13:18.047Z,4.30
2018-05-06T05:15:45.517Z,3.90
2018-05-06T05:18:13.744Z,4.57
2018-05-06T05:20:41.204Z,4.50
2018-05-06T05:23:08.672Z,4.43
2018-05-06T05:25:36.126Z,3.73
2018-05-06T05:28:03.612Z,4.53
2018-05-06T05:30:31.074Z,3.77
2018-05-06T05:32:58.572Z,4.40
2018-05-06T05:35:26.030Z,4.20
2018-05-06T05:37:53.498Z,3.60
2018-05-06T05:40:20.972Z,4.07
2018-05-06T05:42:49.202Z,4.23
2018-05-06T05:45:16.666Z,3.67
2018-05-06T05:47:44.135Z,3.40
2018-05-06T05:50:11.604Z,4.23
2018-05-06T05:52:39.076Z,3.73
2018-05-06T05:55:06.560Z,4.30
2018-05-06T05:57:34.025Z,4.33
2018-05-06T06:00:01.486Z,3.97
2018-05-06T06:02:28.944Z,3.70
2018-05-06T06:04:56.409Z,3.63
2018-05-06T06:07:23.883Z,3.30
2018-05-06T06:09:51.343Z,4.00
2018-05-06T06:12:18.824Z,3.50
2018-05-06T06:14:47.050Z,3.40
2018-05-06T06:17:14.541Z,3.40
2018-05-06T06:19:41.992Z,3.70
2018-05-06T06:22:09.450Z,3.20
2018-05-06T06:24:36.991Z,3.50
2018-05-06T06:27:04.373Z,3.43
2018-05-06T06:29:31.855Z,2.90
2018-05-06T06:31:59.320Z,3.50
2018-05-06T06:34:26.802Z,3.67
2018-05-06T06:36:55.027Z,3.13
2018-05-06T06:39:22.510Z,3.10
2018-05-06T06:41:49.984Z,3.43
2018-05-06T06:44:17.457Z,2.90
2018-05-06T06:46:44.914Z,3.17
2018-05-06T06:49:12.382Z,3.10
2018-05-06T06:51:39.850Z,2.80
2018-05-06T06:54:07.319Z,3.10
2018-05-06T06:56:34.795Z,3.20
2018-05-06T06:59:03.033Z,3.00
2018-05-06T07:01:30.520Z,2.60
2018-05-06T07:03:57.980Z,3.30
2018-05-06T07:06:25.452Z,2.73
2018-05-06T07:08:52.924Z,3.00
2018-05-06T07:11:20.388Z,2.90
2018-05-06T07:13:48.663Z,3.00
2018-05-06T07:16:16.220Z,3.00
2018-05-06T07:18:44.496Z,3.27
2018-05-06T07:21:11.982Z,3.23
2018-05-06T07:23:39.480Z,2.90
2018-05-06T07:26:07.007Z,2.83
2018-05-06T07:28:34.579Z,2.90
2018-05-06T07:31:02.048Z,2.97
2018-05-06T07:33:30.282Z,2.63
2018-05-06T07:35:57.844Z,3.03
2018-05-06T07:38:25.232Z,3.20
2018-05-06T07:40:52.723Z,3.30
2018-05-06T07:43:20.950Z,3.00
2018-05-06T07:45:48.440Z,2.90
2018-05-06T07:48:15.902Z,3.53
2018-05-06T07:50:43.365Z,2.97
2018-05-06T07:53:10.834Z,3.10
2018-05-06T07:55:38.289Z,3.00
2018-05-06T07:58:05.762Z,3.30
2018-05-06T08:00:33.226Z,2.83
2018-05-06T08:03:00.711Z,3.43
2018-05-06T08:05:28.971Z,3.37
2018-05-06T08:07:56.474Z,3.23
2018-05-06T08:10:23.952Z,2.80
2018-05-06T08:12:51.416Z,2.80
2018-05-06T08:15:18.939Z,2.97
2018-05-06T08:17:46.397Z,3.00
2018-05-06T08:20:14.673Z,3.20
2018-05-06T08:22:42.295Z,3.10
2018-05-06T08:25:09.754Z,2.87
2018-05-06T08:27:37.220Z,3.30
2018-05-06T08:30:04.776Z,2.83
2018-05-06T08:32:32.255Z,3.00
2018-05-06T08:34:59.721Z,2.83
2018-05-06T08:37:27.271Z,3.03
2018-05-06T08:39:54.795Z,3.30
2018-05-06T08:42:22.301Z,3.23
2018-05-06T08:44:49.771Z,3.23
2018-05-06T08:47:17.251Z,3.00
2018-05-06T08:49:44.707Z,3.10
2018-05-06T08:52:12.207Z,2.90
2018-05-06T08:54:39.666Z,2.90
2018-05-06T08:57:07.133Z,2.80
2018-05-06T08:59:34.670Z,3.80
2018-05-06T09:02:02.073Z,3.30
2018-05-06T09:04:29.555Z,3.07
2018-05-06T09:06:57.796Z,3.27
2018-05-06T09:09:25.269Z,3.37
2018-05-06T09:11:52.731Z,3.27
2018-05-06T09:14:20.245Z,3.03
2018-05-06T09:16:47.715Z,2.83
2018-05-06T09:19:15.203Z,3.40
2018-05-06T09:21:42.679Z,3.17
2018-05-06T09:24:10.139Z,3.00
2018-05-06T09:26:38.395Z,2.93
2018-05-06T09:29:05.859Z,3.43
2018-05-06T09:31:33.332Z,3.30
2018-05-06T09:34:00.797Z,3.37
2018-05-06T09:36:28.397Z,3.67
2018-05-06T09:38:55.761Z,3.10
2018-05-06T09:41:23.222Z,3.10
2018-05-06T09:43:50.931Z,3.00
2018-05-06T09:46:18.391Z,3.10
2018-05-06T09:48:45.871Z,3.10
2018-05-06T09:51:13.333Z,3.30
2018-05-06T09:53:40.831Z,3.00
2018-05-06T09:56:08.307Z,3.30
2018-05-06T09:58:35.877Z,2.73
2018-05-06T10:01:03.383Z,3.30
2018-05-06T10:03:30.850Z,2.90
2018-05-06T10:05:58.328Z,3.27
2018-05-06T10:08:25.806Z,2.63
2018-05-06T10:10:53.289Z,3.63
2018-05-06T10:13:20.859Z,3.10
2018-05-06T10:15:48.336Z,2.73
2018-05-06T10:18:16.600Z,3.10
2018-05-06T10:20:44.095Z,3.30
2018-05-06T10:23:12.328Z,3.47
2018-05-06T10:25:39.822Z,3.00
2018-05-06T10:28:07.380Z,3.00
2018-05-06T10:30:34.870Z,3.23
2018-05-06T10:33:03.222Z,3.03
2018-05-06T10:35:30.795Z,2.90
2018-05-06T10:37:58.266Z,3.30
2018-05-06T10:40:25.731Z,3.07
2018-05-06T10:42:53.193Z,3.07
2018-05-06T10:45:20.651Z,2.90
2018-05-06T10:47:48.111Z,3.07
2018-05-06T10:50:15.581Z,3.40
2018-05-06T10:52:43.142Z,2.83
2018-05-06T10:55:10.625Z,3.27
2018-05-06T10:57:38.853Z,2.73
2018-05-06T11:00:06.353Z,3.10
2018-05-06T11:02:33.822Z,3.30
2018-05-06T11:05:01.312Z,2.83
2018-05-06T11:07:29.538Z,2.90
2018-05-06T11:09:56.993Z,2.83
2018-05-06T11:12:24.529Z,3.50
2018-05-06T11:14:51.982Z,3.00
2018-05-06T11:17:19.455Z,3.13
2018-05-06T11:19:46.925Z,2.80
2018-05-06T11:22:14.413Z,2.80
2018-05-06T11:24:41.871Z,2.93
2018-05-06T11:27:09.329Z,2.50
2018-05-06T11:29:36.804Z,2.67
2018-05-06T11:32:04.265Z,2.60
2018-05-06T11:34:31.725Z,3.07
2018-05-06T11:36:59.181Z,3.30
2018-05-06T11:39:26.667Z,2.93
2018-05-06T11:41:54.145Z,2.93
2018-05-06T11:44:21.642Z,2.83
2018-05-06T11:46:49.880Z,2.90
2018-05-06T11:49:17.337Z,2.90
2018-05-06T11:51:44.789Z,3.10
2018-05-06T11:54:12.341Z,2.97
2018-05-06T11:56:39.797Z,3.07
2018-05-06T11:59:07.261Z,3.20
2018-05-06T12:01:34.762Z,3.00
2018-05-06T12:04:02.240Z,2.30
2018-05-06T12:06:29.733Z,2.97
2018-05-06T12:08:57.967Z,2.70
2018-05-06T12:11:25.495Z,2.70
2018-05-06T12:13:52.967Z,2.70
2018-05-06T12:16:20.541Z,2.77
2018-05-06T12:18:47.997Z,2.47
2018-05-06T12:21:15.467Z,2.83
2018-05-06T12:23:42.945Z,2.53
2018-05-06T12:26:10.407Z,2.10
2018-05-06T12:28:37.896Z,2.50
2018-05-06T12:31:05.361Z,2.37
2018-05-06T12:33:32.892Z,2.60
2018-05-06T12:36:00.311Z,2.47
2018-05-06T12:38:28.534Z,2.27
2018-05-06T12:40:55.993Z,2.00
2018-05-06T12:43:23.559Z,2.20
2018-05-06T12:45:50.952Z,1.97
2018-05-06T12:48:18.413Z,2.33
2018-05-06T12:50:45.902Z,2.17
2018-05-06T12:53:13.360Z,1.87
2018-05-06T12:55:40.836Z,1.83
2018-05-06T12:58:09.067Z,2.20
2018-05-06T13:00:36.608Z,1.90
2018-05-06T13:03:04.073Z,2.10
2018-05-06T13:05:31.542Z,1.90
2018-05-06T13:07:59.028Z,1.97
2018-05-06T13:10:26.499Z,2.00
2018-05-06T13:12:54.755Z,2.10
2018-05-06T13:15:22.199Z,1.93
2018-05-06T13:17:49.664Z,2.40
2018-05-06T13:20:17.127Z,1.90
2018-05-06T13:22:44.588Z,2.30
2018-05-06T13:25:12.053Z,1.73
2018-05-06T13:27:39.510Z,1.90
2018-05-06T13:30:07.761Z,2.03
2018-05-06T13:32:35.235Z,2.00
2018-05-06T13:35:03.497Z,2.00
2018-05-06T13:37:30.955Z,2.00
2018-05-06T13:39:58.419Z,4.30
2018-05-06T13:42:25.887Z,1.90
2018-05-06T13:44:53.362Z,1.93
2018-05-06T13:47:20.850Z,2.40
2018-05-06T13:49:49.178Z,2.47
2018-05-06T13:52:17.374Z,2.10
2018-05-06T13:54:44.834Z,1.70
2018-05-06T13:57:13.090Z,1.83
2018-05-06T13:59:40.595Z,1.97
2018-05-06T14:02:08.064Z,1.60
2018-05-06T14:04:35.518Z,1.70
2018-05-06T14:07:02.992Z,1.80
2018-05-06T14:09:30.550Z,1.80
2018-05-06T14:11:58.019Z,1.70
2018-05-06T14:14:25.587Z,1.80
2018-05-06T14:16:53.049Z,1.80
2018-05-06T14:19:22.046Z,1.80
2018-05-06T14:21:49.665Z,1.60
2018-05-06T14:24:17.079Z,1.93
2018-05-06T14:26:44.536Z,1.60
2018-05-06T14:29:12.032Z,2.10
2018-05-06T14:31:40.292Z,1.60
2018-05-06T14:34:07.850Z,1.67
2018-05-06T14:36:35.412Z,1.63
2018-05-06T14:39:02.879Z,1.70
2018-05-06T14:41:30.443Z,2.90
2018-05-06T14:43:58.719Z,6.10
2018-05-06T14:46:38.361Z,1.70
2018-05-06T14:49:05.825Z,1.37
2018-05-06T14:51:33.393Z,1.40
2018-05-06T14:54:00.870Z,1.53
2018-05-06T14:56:29.832Z,1.60
2018-05-06T14:58:57.364Z,1.60
2018-05-06T15:01:24.824Z,1.60
2018-05-06T15:03:52.306Z,1.50
2018-05-06T15:06:19.772Z,1.40
2018-05-06T15:08:47.256Z,1.50
2018-05-06T15:11:14.718Z,1.30
2018-05-06T15:13:42.206Z,1.73
2018-05-06T15:16:09.676Z,1.80
2018-05-06T15:18:37.194Z,1.40
2018-05-06T15:21:04.677Z,1.23
2018-05-06T15:23:32.142Z,1.57
2018-05-06T15:25:59.622Z,2.70
2018-05-06T15:28:27.098Z,5.97
2018-05-06T15:30:54.576Z,1.70
2018-05-06T15:33:22.804Z,1.63
2018-05-06T15:35:50.296Z,1.50
2018-05-06T15:38:17.768Z,1.47
2018-05-06T15:40:45.229Z,1.60
2018-05-06T15:43:12.691Z,1.40
2018-05-06T15:45:40.168Z,1.40
2018-05-06T15:48:08.435Z,1.93
2018-05-06T15:50:35.931Z,1.93
2018-05-06T15:53:04.158Z,1.63
2018-05-06T15:55:31.632Z,3.03
2018-05-06T15:57:59.107Z,1.70
2018-05-06T16:00:26.571Z,2.37
2018-05-06T16:03:05.891Z,1.93
2018-05-06T16:05:33.349Z,79.43
2018-05-06T16:08:00.841Z,28.67
2018-05-06T16:10:28.317Z,149.57
2018-05-06T16:12:56.559Z,28.47
2018-05-06T16:15:24.051Z,82.03
2018-05-06T16:17:51.533Z,211.30
2018-05-06T16:20:19.779Z,129.67
2018-05-06T16:22:47.272Z,414.37
2018-05-06T16:25:15.512Z,610.13
2018-05-06T16:27:42.998Z,878.95
2018-05-06T16:30:10.482Z,129.40
2018-05-06T16:32:38.719Z,2.17
2018-05-06T16:35:06.178Z,1.17
2018-05-06T16:37:33.650Z,1.37
2018-05-06T16:40:01.137Z,1.40
2018-05-06T16:42:28.633Z,1.30
2018-05-06T16:44:56.091Z,1.30
2018-05-06T16:47:23.602Z,1.33
2018-05-06T16:49:51.069Z,1.03
2018-05-06T16:52:18.523Z,1.20
2018-05-06T16:54:45.987Z,1.13
2018-05-06T16:57:13.451Z,1.20
2018-05-06T16:59:40.937Z,1.30
2018-05-06T17:02:08.422Z,1.17
2018-05-06T17:04:36.682Z,1.00
2018-05-06T17:07:04.145Z,0.97
2018-05-06T17:09:31.632Z,1.00
2018-05-06T17:11:59.875Z,1.10
2018-05-06T17:14:27.406Z,1.30
2018-05-06T17:16:54.871Z,1.20
2018-05-06T17:19:22.338Z,1.20
2018-05-06T17:21:49.814Z,1.23
2018-05-06T17:24:17.280Z,1.30
2018-05-06T17:26:44.769Z,1.00
2018-05-06T17:29:12.233Z,1.10
2018-05-06T17:31:39.698Z,1.10
2018-05-06T17:34:07.178Z,1.00
2018-05-06T17:36:34.644Z,1.10
2018-05-06T17:39:02.103Z,1.00
2018-05-06T17:41:29.567Z,1.27
2018-05-06T17:43:57.051Z,1.10
2018-05-06T17:46:25.275Z,1.00
2018-05-06T17:48:52.752Z,1.30
2018-05-06T17:51:20.224Z,1.13
2018-05-06T17:53:47.739Z,1.10
2018-05-06T17:56:15.206Z,1.03
2018-05-06T17:58:42.668Z,1.10
2018-05-06T18:01:10.135Z,1.10
2018-05-06T18:03:37.616Z,1.03
2018-05-06T18:06:05.108Z,1.10
2018-05-06T18:08:32.570Z,1.20
2018-05-06T18:11:00.065Z,1.30
2018-05-06T18:13:28.296Z,0.90
2018-05-06T18:15:56.520Z,1.10
2018-05-06T18:18:24.758Z,1.20
2018-05-06T18:20:52.218Z,1.20
2018-05-06T18:23:19.669Z,0.90
2018-05-06T18:25:47.144Z,1.13
2018-05-06T18:28:14.642Z,1.10
2018-05-06T18:30:42.110Z,1.17
2018-05-06T18:33:09.588Z,1.30
2018-05-06T18:35:37.818Z,1.00
2018-05-06T18:38:05.289Z,1.00
2018-05-06T18:40:32.750Z,1.10
2018-05-06T18:43:00.991Z,1.03
2018-05-06T18:45:28.480Z,1.07
2018-05-06T18:47:55.960Z,1.17
2018-05-06T18:50:23.441Z,1.10
2018-05-06T18:52:50.975Z,1.20
2018-05-06T18:55:18.416Z,19.00
2018-05-06T18:57:45.893Z,2.97
2018-05-06T19:00:13.385Z,1.20
2018-05-06T19:02:40.880Z,1.10
2018-05-06T19:05:08.533Z,1.30
2018-05-06T19:07:36.129Z,1.30
2018-05-06T19:10:04.415Z,1.25
2018-05-06T19:12:32.775Z,1.13
2018-05-06T19:15:00.250Z,1.30
2018-05-06T19:17:28.510Z,1.07
2018-05-06T19:19:56.007Z,1.20
2018-05-06T19:22:24.249Z,1.30
2018-05-06T19:24:51.731Z,1.30
2018-05-06T19:27:19.223Z,1.33
2018-05-06T19:29:47.462Z,1.20
2018-05-06T19:32:14.954Z,0.90
2018-05-06T19:34:43.255Z,1.10
2018-05-06T19:37:10.724Z,3.77
2018-05-06T19:39:38.243Z,3.13
2018-05-06T19:42:06.165Z,41.47
2018-05-06T19:44:34.090Z,24.80
2018-05-06T19:47:01.638Z,3.90
2018-05-06T19:49:29.125Z,2.00
2018-05-06T19:51:56.687Z,1.50
2018-05-06T19:54:24.197Z,1.20
2018-05-06T19:56:51.741Z,1.27
2018-05-06T19:59:19.985Z,1.30
2018-05-06T20:01:47.510Z,1.20
2018-05-06T20:04:15.041Z,1.30
2018-05-06T20:06:42.642Z,1.30
2018-05-06T20:09:10.148Z,1.40
2018-05-06T20:11:37.631Z,1.47
2018-05-06T20:14:05.211Z,1.40
2018-05-06T20:16:33.482Z,1.37
2018-05-06T20:19:00.966Z,1.50
2018-05-06T20:21:29.290Z,1.30
2018-05-06T20:23:57.515Z,1.50
2018-05-06T20:26:25.799Z,1.40
2018-05-06T20:28:54.060Z,1.30
2018-05-06T20:31:22.391Z,1.40
2018-05-06T20:33:49.834Z,1.20
2018-05-06T20:36:18.097Z,1.40
2018-05-06T20:38:45.584Z,1.30
2018-05-06T20:41:13.822Z,1.47
2018-05-06T20:43:41.349Z,1.40
2018-05-06T20:46:09.547Z,1.20
2018-05-06T20:48:37.054Z,1.50
2018-05-06T20:51:04.608Z,1.30
2018-05-06T20:53:32.081Z,1.43
2018-05-06T20:55:59.576Z,1.47
2018-05-06T20:58:27.033Z,1.23
2018-05-06T21:00:54.524Z,1.47
2018-05-06T21:03:22.076Z,1.40
2018-05-06T21:05:49.541Z,1.70
2018-05-06T21:08:17.007Z,1.40
2018-05-06T21:10:44.523Z,1.80
2018-05-06T21:13:12.035Z,1.40
2018-05-06T21:15:39.503Z,1.50
2018-05-06T21:18:06.983Z,1.40
2018-05-06T21:20:34.443Z,1.40
2018-05-06T21:23:01.946Z,1.70
2018-05-06T21:25:29.415Z,1.33
2018-05-06T21:27:57.010Z,1.37
2018-05-06T21:30:24.487Z,1.13
2018-05-06T21:32:51.978Z,1.20
2018-05-06T21:35:19.464Z,1.53
2018-05-06T21:37:46.950Z,1.30
2018-05-06T21:40:15.193Z,1.40
2018-05-06T21:42:42.815Z,1.33
2018-05-06T21:45:10.560Z,1.20
2018-05-06T21:47:38.029Z,1.43
2018-05-06T21:50:06.273Z,1.23
2018-05-06T21:52:33.738Z,1.30
2018-05-06T21:55:01.232Z,1.40
2018-05-06T21:57:28.706Z,1.60
2018-05-06T21:59:56.951Z,1.30
2018-05-06T22:02:24.436Z,1.33
2018-05-06T22:04:51.907Z,1.30
2018-05-06T22:07:19.380Z,1.57
2018-05-06T22:09:47.601Z,1.30
2018-05-06T22:12:15.080Z,1.20
2018-05-06T22:14:42.594Z,1.20
2018-05-06T22:17:10.859Z,1.10
2018-05-06T22:19:38.323Z,1.20
2018-05-06T22:22:05.879Z,1.40
2018-05-06T22:24:33.492Z,1.30
2018-05-06T22:27:00.968Z,1.30
2018-05-06T22:29:28.470Z,1.50
2018-05-06T22:31:55.952Z,1.47
2018-05-06T22:34:23.497Z,1.40
2018-05-06T22:36:51.785Z,1.30
2018-05-06T22:39:20.041Z,1.40
2018-05-06T22:41:47.529Z,1.53
2018-05-06T22:44:15.769Z,1.60
2018-05-06T22:46:43.273Z,1.60
2018-05-06T22:49:10.754Z,1.30
2018-05-06T22:51:38.256Z,1.60
2018-05-06T22:54:06.469Z,1.50
2018-05-06T22:56:33.946Z,1.60
2018-05-06T22:59:01.513Z,1.53
2018-05-06T23:01:29.085Z,1.43
2018-05-06T23:03:56.541Z,1.50
2018-05-06T23:06:24.132Z,1.50
2018-05-06T23:08:51.601Z,1.40
2018-05-06T23:11:19.144Z,1.40
2018-05-06T23:13:46.605Z,1.40
2018-05-06T23:16:14.135Z,1.57
2018-05-06T23:18:41.547Z,1.33
2018-05-06T23:21:09.766Z,1.40
2018-05-06T23:23:37.294Z,1.40
2018-05-06T23:26:04.747Z,1.70
2018-05-06T23:28:32.343Z,1.67
2018-05-06T23:30:59.880Z,1.50
2018-05-06T23:33:27.349Z,1.50
2018-05-06T23:35:55.576Z,1.50
2018-05-06T23:38:23.043Z,1.60
2018-05-06T23:40:50.499Z,1.53
2018-05-06T23:43:17.967Z,1.80
2018-05-06T23:45:45.462Z,1.87
2018-05-06T23:48:12.929Z,1.53
2018-05-06T23:50:41.904Z,1.53
2018-05-06T23:53:09.363Z,1.57
2018-05-06T23:55:36.826Z,1.47
2018-05-06T23:58:04.288Z,1.53
